Latest Weather Observations for Essendon Airport

IDV60801

Issued at 3:32 pm EST Sunday 20 August 2017 (issued every 30 minutes, with the page automatically refreshed every 10 minutes)

About weather observations | Map of weather stations | Latest weather observations for VIC | Other Formats
Station Details ID: 086038 Name: ESSENDON AIRPORT Lat: -37.73 Lon: 144.91 Height: 78.4 m
Data from the previous 72 hours. | See also: Recent months at Essendon Airport
Date/Time
EST
Temp
°C
App
Temp
°C
Dew
Point
°C
Rel
Hum
%
Delta-T
°C
Wind Press
QNH
hPa
Press
MSL
hPa
Rain since
9am
mm
Dir  Spd
km/h
Gust
km/h
Spd
kts
Gust
kts
20/03:30pm 12.4 9.1 0.2 43 5.0 ENE 7 11 4 6 1020.5 1020.6 0.0
20/03:00pm 12.4 8.8 0.5 44 5.0 E 9 15 5 8 1020.8 1020.9 0.0
20/02:30pm 12.6 9.4 -0.3 41 5.3 ENE 6 11 3 6 1021.5 1021.6 0.0
20/02:00pm 12.6 9.7 1.6 47 4.7 ENE 6 13 3 7 1022.1 1022.2 0.0
20/01:30pm 12.0 9.8 0.8 46 4.7 NE 2 7 1 4 1022.7 1022.8 0.0
20/01:00pm 12.3 9.5 2.2 50 4.4 NE 6 11 3 6 1023.3 1023.4 0.0
20/12:30pm 11.6 8.5 1.3 49 4.4 NNE 7 15 4 8 1023.9 1024.0 0.0
20/12:00pm 11.4 9.0 1.9 52 4.0 ESE 4 11 2 6 1024.6 1024.7 0.0
20/11:30am 11.2 8.4 2.2 54 3.9 ESE 6 13 3 7 1025.3 1025.5 0.0
20/11:00am 11.3 9.5 3.3 58 3.5 NNW 2 7 1 4 1025.7 1025.9 0.0
20/10:30am 9.8 8.0 1.5 56 3.5 CALM 0 6 0 3 1026.1 1026.3 0.0
20/10:00am 10.1 8.6 3.2 62 3.0 CALM 0 0 0 0 1026.6 1026.8 0.0
20/09:30am 8.3 6.6 1.7 63 2.7 CALM 0 2 0 1 1027.0 1027.2 0.0
20/09:00am 8.1 6.9 4.5 78 1.6 CALM 0 2 0 1 1027.2 1027.4 1.4
20/08:30am 6.8 5.1 4.1 83 1.2 E 2 6 1 3 1027.2 1027.4 1.4
20/08:00am 5.6 4.4 4.6 93 0.4 CALM 0 0 0 0 1027.0 1027.2 1.4
20/07:30am 4.8 3.4 3.6 92 0.5 CALM 0 6 0 3 1027.0 1027.2 1.4
20/07:00am 4.9 3.2 3.9 93 0.4 NW 2 9 1 5 1026.7 1026.9 1.4
20/06:30am 4.3 3.0 4.2 99 0.0 CALM 0 0 0 0 1026.8 1027.0 1.4
20/06:00am 4.2 2.9 4.1 99 0.0 CALM 0 0 0 0 1026.7 1026.9 1.4
20/05:30am 4.2 2.8 3.5 95 0.3 CALM 0 2 0 1 1026.7 1026.9 1.4
20/05:00am 4.1 0.5 3.2 94 0.4 NNW 11 15 6 8 1026.5 1026.7 1.4
20/04:30am 4.2 2.8 3.5 95 0.3 CALM 0 6 0 3 1026.4 1026.6 1.4
20/04:00am 4.6 3.2 3.7 94 0.4 CALM 0 0 0 0 1026.6 1026.8 1.4
20/03:30am 4.6 2.1 3.6 93 0.4 NW 6 13 3 7 1026.5 1026.7 1.4
20/03:00am 3.4 1.8 2.7 95 0.3 CALM 0 0 0 0 1026.3 1026.5 1.4
20/02:30am 4.2 1.0 2.9 91 0.5 WNW 9 11 5 6 1026.5 1026.7 1.4
20/02:00am 5.5 3.4 4.0 90 0.6 NW 4 11 2 6 1026.3 1026.5 1.4
20/01:30am 5.6 4.0 4.4 92 0.5 NW 2 7 1 4 1026.5 1026.7 1.4
20/01:00am 5.2 1.8 4.2 93 0.4 WNW 11 15 6 8 1026.9 1027.1 1.4
20/12:30am 4.5 1.8 3.8 95 0.3 WNW 7 11 4 6 1027.3 1027.5 1.4
20/12:00am 4.9 1.5 4.2 95 0.3 WNW 11 15 6 8 1027.6 1027.8 1.4
 
Date/Time
EST
Temp
°C
App
Temp
°C
Dew
Point
°C
Rel
Hum
%
Delta-T
°C
Wind Press
QNH
hPa
Press
MSL
hPa
Rain since
9am
mm
Dir  Spd
km/h
Gust
km/h
Spd
kts
Gust
kts
19/11:30pm 5.7 4.2 4.8 94 0.4 ESE 2 7 1 4 1027.4 1027.6 1.4
19/11:00pm 5.5 2.5 4.2 91 0.6 SW 9 11 5 6 1027.3 1027.5 1.4
19/10:30pm 7.3 3.5 5.6 89 0.8 SW 15 17 8 9 1027.6 1027.8 1.4
19/10:00pm 7.1 3.9 5.1 87 0.9 WSW 11 13 6 7 1027.5 1027.7 1.4
19/09:30pm 7.5 4.2 4.8 83 1.2 W 11 13 6 7 1027.4 1027.6 1.4
19/09:00pm 7.1 4.1 3.9 80 1.4 WSW 9 13 5 7 1027.2 1027.4 1.4
19/08:30pm 8.0 4.7 4.4 78 1.6 WSW 11 15 6 8 1027.2 1027.4 1.4
19/08:00pm 8.4 5.7 3.8 73 2.0 SSW 7 9 4 5 1027.0 1027.2 1.4
19/07:30pm 8.4 5.2 3.3 70 2.2 S 9 13 5 7 1027.1 1027.3 1.4
19/07:00pm 8.6 5.0 3.2 69 2.3 S 11 15 6 8 1027.2 1027.4 1.4
19/06:30pm 8.8 4.3 2.4 64 2.7 SSW 15 20 8 11 1027.2 1027.4 1.4
19/06:00pm 8.7 4.6 2.5 65 2.6 SSW 13 19 7 10 1027.0 1027.2 1.4
19/05:30pm 9.1 4.7 2.7 64 2.7 S 15 20 8 11 1026.7 1026.9 1.4
19/05:00pm 10.0 4.8 3.7 65 2.8 S 20 30 11 16 1026.5 1026.7 1.4
19/04:30pm 10.4 5.8 3.7 63 3.0 S 17 26 9 14 1026.4 1026.6 1.4
19/04:00pm 10.3 5.1 3.6 63 2.9 SSW 20 30 11 16 1026.3 1026.5 1.4
19/03:30pm 11.2 7.6 4.9 65 2.9 S 13 22 7 12 1026.2 1026.4 1.4
19/03:00pm 10.1 5.2 4.3 67 2.6 S 19 26 10 14 1026.3 1026.5 1.4
19/02:30pm 10.4 5.3 3.9 64 2.9 S 20 28 11 15 1026.3 1026.5 1.4
19/02:00pm 10.7 5.7 4.8 67 2.7 S 20 28 11 15 1026.4 1026.6 1.4
19/01:30pm 11.0 6.3 5.1 67 2.7 S 19 26 10 14 1026.3 1026.5 1.4
19/01:00pm 10.9 6.7 5.7 70 2.4 S 17 24 9 13 1026.5 1026.7 1.4
19/12:30pm 9.7 6.4 6.2 79 1.6 S 13 20 7 11 1026.4 1026.6 1.4
19/12:00pm 8.9 4.9 6.5 85 1.1 SW 17 26 9 14 1026.6 1026.8 1.4
19/11:30am 8.2 6.1 8.1 99 0.0 WSW 9 15 5 8 1026.6 1026.8 1.4
19/11:18am 6.8 3.2 6.7 99 0.0 SW 15 20 8 11 1026.7 1026.9 1.4
19/11:01am 5.9 0.2 4.9 93 0.4 SSW 24 44 13 24 1026.9 1027.1 1.0
19/11:00am 5.8 0.0 4.4 91 0.6 SSW 24 44 13 24 1026.9 1027.1 1.0
19/10:57am 7.6 3.0 5.6 87 0.9 SW 19 44 10 24 1026.8 1027.0 0.0
19/10:30am 9.5 6.3 6.9 84 1.2 SW 13 20 7 11 1026.5 1026.7 0.0
19/10:00am 8.6 5.6 7.8 95 0.4 WSW 13 17 7 9 1026.3 1026.5 0.0
19/09:30am 7.4 4.3 7.3 99 0.0 WSW 13 15 7 8 1026.2 1026.4 0.0
19/09:00am 6.0 2.2 5.9 99 0.0 SW 15 20 8 11 1026.1 1026.3 7.8
19/08:30am 5.6 1.4 5.5 99 0.0 WSW 17 20 9 11 1025.5 1025.7 7.2
19/08:00am 5.6 2.1 5.5 99 0.0 WSW 13 17 7 9 1025.1 1025.3 7.2
19/07:33am 5.0 1.8 4.9 99 0.0 W 11 15 6 8 1024.7 1024.8 7.0
19/07:30am 5.0 1.8 4.9 99 0.0 W 11 15 6 8 1024.6 1024.7 7.0
19/07:10am 4.7 1.0 4.6 99 0.0 WSW 13 20 7 11 1024.3 1024.4 7.0
19/07:00am 4.2 0.8 4.1 99 0.0 WSW 11 15 6 8 1024.1 1024.2 7.0
19/06:30am 5.0 0.6 4.9 99 0.0 WSW 17 20 9 11 1023.6 1023.7 6.8
19/06:00am 4.6 -0.2 4.5 99 0.0 W 19 24 10 13 1022.8 1022.9 6.6
19/05:30am 4.2 0.4 4.1 99 0.0 W 13 19 7 10 1022.5 1022.6 6.6
19/05:00am 4.6 1.3 4.5 99 0.0 WSW 11 15 6 8 1022.3 1022.4 6.6
19/04:30am 4.8 0.0 4.7 99 0.0 WSW 19 24 10 13 1022.0 1022.1 6.6
19/04:00am 5.1 -0.2 5.0 99 0.0 WSW 22 28 12 15 1021.6 1021.7 6.4
19/03:30am 4.9 -0.1 4.8 99 0.0 W 20 24 11 13 1021.4 1021.5 6.2
19/03:00am 5.2 0.9 5.1 99 0.0 W 17 20 9 11 1021.3 1021.4 6.2
19/02:30am 5.4 1.1 5.3 99 0.0 WSW 17 22 9 12 1021.3 1021.4 6.2
19/02:00am 5.6 -0.4 5.5 99 0.0 W 26 32 14 17 1021.0 1021.1 6.2
19/01:30am 5.9 1.1 5.8 99 0.0 WSW 20 28 11 15 1021.0 1021.1 6.2
19/01:00am 6.1 1.0 6.0 99 0.0 WSW 22 28 12 15 1020.7 1020.8 6.0
19/12:30am 6.0 1.2 5.6 97 0.2 WSW 20 28 11 15 1020.9 1021.0 6.0
19/12:00am 6.3 -0.4 5.7 96 0.3 WSW 30 37 16 20 1020.7 1020.8 5.8
 
Date/Time
EST
Temp
°C
App
Temp
°C
Dew
Point
°C
Rel
Hum
%
Delta-T
°C
Wind Press
QNH
hPa
Press
MSL
hPa
Rain since
9am
mm
Dir  Spd
km/h
Gust
km/h
Spd
kts
Gust
kts
18/11:30pm 6.3 1.8 5.9 97 0.2 WSW 19 24 10 13 1020.3 1020.4 5.4
18/11:00pm 6.4 1.6 5.8 96 0.3 SW 20 28 11 15 1020.4 1020.5 5.4
18/10:30pm 6.6 1.8 5.7 94 0.4 WSW 20 26 11 14 1019.8 1019.9 5.0
18/10:00pm 6.5 1.7 5.6 94 0.4 WSW 20 28 11 15 1019.5 1019.6 5.0
18/09:30pm 7.0 1.0 5.3 89 0.8 W 26 39 14 21 1019.3 1019.4 5.0
18/09:00pm 7.0 1.7 5.2 88 0.8 W 22 28 12 15 1018.9 1019.0 4.6
18/08:30pm 7.0 1.7 5.2 88 0.8 WSW 22 28 12 15 1018.5 1018.6 4.6
18/08:00pm 7.5 2.4 6.0 90 0.7 WSW 22 32 12 17 1018.2 1018.3 4.6
18/07:30pm 7.5 2.5 6.4 93 0.5 WSW 22 30 12 16 1017.7 1017.8 4.6
18/07:00pm 7.6 3.0 6.5 93 0.5 W 20 30 11 16 1017.0 1017.1 4.6
18/06:30pm 7.3 2.6 6.2 93 0.5 WSW 20 24 11 13 1016.8 1016.9 4.4
18/06:00pm 7.6 0.9 5.6 87 0.9 W 30 39 16 21 1016.2 1016.3 4.0
18/05:30pm 8.4 2.8 5.5 82 1.3 W 24 32 13 17 1015.3 1015.4 3.8
18/05:00pm 8.6 2.6 5.4 80 1.4 W 26 35 14 19 1015.0 1015.2 3.8
18/04:30pm 9.1 2.0 5.3 77 1.7 WSW 32 43 17 23 1014.5 1014.7 3.8
18/04:11pm 9.6 3.3 5.8 77 1.7 WSW 28 46 15 25 1014.0 1014.1 3.8
18/04:00pm 9.6 2.6 5.8 77 1.7 WSW 32 46 17 25 1013.9 1014.0 3.8
18/03:30pm 9.4 2.6 6.7 83 1.3 WSW 32 44 17 24 1013.4 1013.5 3.8
18/03:20pm 8.4 3.1 6.9 90 0.7 WSW 24 33 13 18 1013.3 1013.4 3.8
18/03:02pm 7.5 0.8 5.8 89 0.8 SW 30 46 16 25 1013.4 1013.5 3.6
18/03:00pm 7.6 0.9 5.6 87 0.9 SW 30 43 16 23 1013.2 1013.3 2.8
18/02:30pm 10.4 3.8 6.2 75 2.0 W 30 41 16 22 1012.4 1012.5 1.8
18/02:00pm 9.6 2.7 6.3 80 1.5 W 32 41 17 22 1011.9 1012.0 1.8
18/01:30pm 9.7 3.9 8.1 90 0.8 W 28 39 15 21 1011.8 1011.9 1.8
18/01:01pm 7.2 -0.4 5.8 91 0.6 WSW 35 56 19 30 1011.6 1011.7 1.8
18/01:00pm 7.2 -0.5 5.5 89 0.8 WSW 35 56 19 30 1011.6 1011.7 1.8
18/12:44pm 5.9 -5.5 4.7 92 0.5 SW 54 80 29 43 1011.9 1012.0 1.2
18/12:40pm 6.4 -4.4 4.2 86 0.9 WSW 50 80 27 43 1011.7 1011.8 0.8
18/12:37pm 8.3 -1.1 5.4 82 1.3 WSW 44 80 24 43 1011.1 1011.2 0.6
18/12:35pm 9.2 0.7 5.2 76 1.8 WSW 39 72 21 39 1010.8 1010.9 0.2
18/12:30pm 10.9 3.3 5.7 70 2.4 W 35 44 19 24 1010.6 1010.7 0.0
18/12:00pm 11.3 3.0 4.3 62 3.2 W 37 50 20 27 1010.7 1010.8 0.0
18/11:30am 10.7 1.1 3.5 61 3.2 W 43 54 23 29 1010.8 1010.9 0.0
18/11:00am 10.2 1.1 4.1 66 2.7 W 41 56 22 30 1010.5 1010.6 0.0
18/10:46am 10.3 1.6 4.0 65 2.8 W 39 63 21 34 1010.3 1010.4 0.0
18/10:30am 10.2 2.9 4.4 67 2.6 W 32 46 17 25 1010.4 1010.5 0.0
18/10:00am 9.0 0.7 4.0 71 2.2 W 37 52 20 28 1009.7 1009.8 0.0
18/09:30am 8.7 1.1 4.1 73 2.0 W 33 46 18 25 1009.4 1009.5 0.0
18/09:13am 7.6 0.1 3.3 74 1.8 WNW 32 50 17 27 1009.3 1009.4 0.0
18/09:00am 8.0 -0.4 3.5 73 1.9 WNW 37 50 20 27 1009.1 1009.2 2.2
18/08:38am 8.4 0.8 3.8 73 2.0 W 33 54 18 29 1009.0 1009.1 2.2
18/08:30am 8.6 1.2 4.2 74 1.9 W 32 48 17 26 1008.9 1009.0 2.2
18/08:26am 8.4 1.3 3.8 73 2.0 W 30 48 16 26 1008.8 1008.9 2.2
18/08:00am 8.1 1.1 4.1 76 1.7 WNW 30 41 16 22 1008.2 1008.3 2.2
18/07:30am 7.7 0.7 3.9 77 1.6 W 30 43 16 23 1007.9 1008.0 2.2
18/07:00am 7.4 1.4 3.6 77 1.6 WNW 24 33 13 18 1007.1 1007.2 2.2
18/06:30am 7.4 1.1 3.5 76 1.7 WNW 26 41 14 22 1006.7 1006.8 2.2
18/06:00am 7.8 0.3 3.7 75 1.8 W 32 41 17 22 1006.3 1006.4 2.2
18/05:30am 7.7 1.6 3.0 72 2.0 WNW 24 39 13 21 1005.8 1005.9 2.2
18/05:00am 7.7 1.3 3.2 73 1.9 WNW 26 37 14 20 1005.4 1005.5 2.2
18/04:30am 8.0 1.6 3.3 72 2.0 WNW 26 41 14 22 1005.1 1005.2 2.2
18/04:00am 8.1 1.3 3.0 70 2.2 NW 28 35 15 19 1004.9 1005.0 2.2
18/03:30am 8.0 2.3 3.1 71 2.1 WNW 22 39 12 21 1004.6 1004.7 2.2
18/03:00am 7.4 2.1 2.9 73 1.9 NW 20 32 11 17 1004.3 1004.4 2.2
18/02:30am 6.9 1.8 3.3 78 1.5 NNW 19 24 10 13 1004.4 1004.5 2.2
18/02:00am 8.0 2.4 3.5 73 1.9 NNW 22 30 12 16 1004.7 1004.8 2.2
18/01:30am 7.2 2.2 3.6 78 1.5 NNW 19 32 10 17 1004.7 1004.8 2.2
18/01:00am 7.6 2.6 3.6 76 1.7 NNW 19 24 10 13 1004.5 1004.6 2.2
18/12:30am 7.1 2.9 3.9 80 1.4 NNW 15 20 8 11 1004.7 1004.8 2.2
18/12:00am 7.5 3.5 4.8 83 1.2 N 15 22 8 12 1004.7 1004.8 2.2
 
Date/Time
EST
Temp
°C
App
Temp
°C
Dew
Point
°C
Rel
Hum
%
Delta-T
°C
Wind Press
QNH
hPa
Press
MSL
hPa
Rain since
9am
mm
Dir  Spd
km/h
Gust
km/h
Spd
kts
Gust
kts
17/11:30pm 7.1 3.1 4.8 85 1.0 N 15 19 8 10 1004.5 1004.6 2.2
17/11:00pm 7.5 3.8 4.5 81 1.3 N 13 20 7 11 1004.3 1004.4 2.2
17/10:30pm 7.6 3.1 4.0 78 1.6 NNW 17 26 9 14 1004.3 1004.4 2.2
17/10:00pm 8.6 3.5 4.0 73 2.0 NW 20 37 11 20 1004.1 1004.2 2.2
17/09:30pm 8.3 3.4 3.9 74 1.9 NW 19 24 10 13 1004.2 1004.3 2.2
17/09:00pm 8.4 3.2 3.8 73 2.0 NW 20 32 11 17 1004.1 1004.2 2.2
17/08:30pm 8.6 3.2 4.4 75 1.9 NW 22 32 12 17 1003.6 1003.6 2.2
17/08:00pm 7.8 4.0 5.9 88 0.9 NNW 15 24 8 13 1003.8 1003.8 2.2
17/07:30pm 7.9 3.7 5.5 85 1.1 WNW 17 24 9 13 1004.0 1004.1 2.2
17/07:08pm 8.8 4.0 5.7 81 1.4 NW 20 56 11 30 1004.4 1004.5 1.8
17/07:00pm 9.0 5.6 5.9 81 1.4 N 13 15 7 8 1003.4 1003.4 1.6
17/06:30pm 9.1 5.7 5.8 80 1.5 N 13 15 7 8 1003.4 1003.4 1.6
17/06:00pm 9.8 6.9 6.3 79 1.6 NW 11 17 6 9 1002.5 1002.5 1.6
17/05:30pm 9.4 6.0 7.7 89 0.8 NW 15 22 8 12 1002.4 1002.4 1.6
17/05:00pm 9.3 4.7 8.1 92 0.6 WNW 22 35 12 19 1002.2 1002.2 1.6
17/04:30pm 9.6 2.9 7.2 85 1.1 W 32 43 17 23 1001.8 1001.9 1.2
17/04:00pm 14.1 8.3 4.4 52 4.5 NW 24 32 13 17 1000.8 1000.9 0.2

Other Formats:

Comma delimited format used in spreadsheet applications
http://www.bom.gov.au/fwo/IDV60801/IDV60801.95866.axf

JavaScript Object Notation format (JSON) in row-major order
http://www.bom.gov.au/fwo/IDV60801/IDV60801.95866.json